Portada
METAR-TAF:

METAR-TAF

Aeroports :

Kunming, Xina

latitud: 25-01N, longitud: 102-41E, altitud: 1892 m

Observació

L'informe es va fer fa 48 minuts, a les 14:00 UTC
Vent 4 kt del Nord
Temperatura 9°C
Humitat 100%
Pressió 1027 hPa
Visibilitat: 5000 m
Núvols disperses a una alçada de 2000 ft
Cel cobert a una alçada de 3300 ft
boirina

METAR: ZPPP 181400Z 36002MPS 5000 BR SCT020 OVC033 09/09 Q1027 NOSIG

Hora: 22:48 (14:48 UTC)

Pronòstic

L'informe es va fer fa 7 hores i 43 minuts, a les 07:05 UTC
Pronòstic vàlid del 18 a les 12 UTC al 19 a les 12 UTC
Vent 8 kt del Nord-Est
Visibilitat 10 km o més
Núvols disperses a una alçada de 2000 ft
Cel cobert a una alçada de 3300 ft
Evolucionant progressivament
l' 18 a les 20 UTC al 18 a les 21 UTC
Vent 10 kt del Sud/Sud-Oest

TAF: ZPPP 180705Z 1812/1912 05004MPS 9999 SCT020 OVC033 TX17/1908Z TN07/1823Z BECMG 1820/1821 20005MPS

Observacions i pronòstics meteorològics de més de 4000 aeroports (METAR i TAF).

Les estacions disponibles són els punts grocs i vermells al mapa.

Posi el ratolí al punt desitjat per veure el nom de l'estació.

Feu clic per veure les observacions i els pronòstics meteorològics.

Per canviar el mapa: feu clic els botons verds amb una creu de color negre per apropar; al botó verd amb un guió per allunyar la imatge; o en les fletxes verdes per a mapes adjacents.


METAR-TAF: